Time;durP1;ratioP1;P1;durP2;ratioP2;P2;SDS_P1;SDS_P2;PMS_P1;PMS_P2;Temp;Humidity;BMP_temperature;BMP_pressure;BME280_temperature;BME280_humidity;BME280_pressure;Samples;Min_cycle;Max_cycle;Signal;HPM_P1;HPM_P2
2023/12/13 00:01:37;;;;;;;47.75;24.35;;;;;;;3.31;91.63;99580.53;5051120;28;20036;-28
2023/12/13 00:04:03;;;;;;;48.53;23.52;;;;;;;3.17;92.01;99578.53;5050991;28;20028;-27
2023/12/13 00:06:28;;;;;;;45.83;23.13;;;;;;;3.22;92.75;99569.19;5051212;28;20028;-27
2023/12/13 00:08:54;;;;;;;46.30;22.88;;;;;;;3.27;93.09;99571.34;5051141;28;20430;-27
2023/12/13 00:11:19;;;;;;;53.28;23.48;;;;;;;3.03;93.00;99575.53;5050991;28;20029;-27
2023/12/13 00:13:45;;;;;;;46.15;22.45;;;;;;;3.06;92.93;99567.31;5050925;28;20464;-27
2023/12/13 00:16:10;;;;;;;44.70;23.08;;;;;;;3.00;93.56;99562.69;5051209;28;20028;-26
2023/12/13 00:18:36;;;;;;;43.10;22.02;;;;;;;3.06;92.48;99561.25;5051014;28;20685;-27
2023/12/13 00:21:02;;;;;;;46.80;22.13;;;;;;;2.95;92.27;99557.09;5050758;28;20048;-26
2023/12/13 00:23:27;;;;;;;43.75;21.90;;;;;;;3.04;92.57;99558.75;5050994;28;20025;-26
2023/12/13 00:25:53;;;;;;;45.90;22.40;;;;;;;3.36;90.94;99553.78;5050727;28;20484;-25
2023/12/13 00:28:18;;;;;;;45.28;22.63;;;;;;;3.36;89.95;99561.66;5050512;28;20044;-25
2023/12/13 00:30:45;;;;;;;45.40;22.83;;;;;;;3.32;89.70;99579.56;5056481;28;20025;-25
2023/12/13 00:33:11;;;;;;;51.83;23.75;;;;;;;3.35;88.97;99587.16;5057822;28;20049;-27
2023/12/13 00:35:37;;;;;;;49.67;23.75;;;;;;;3.27;89.41;99593.19;5058203;28;20036;-26
2023/12/13 00:38:03;;;;;;;45.67;22.88;;;;;;;3.25;89.58;99578.56;5058363;28;20389;-27
2023/12/13 00:40:29;;;;;;;41.33;21.42;;;;;;;3.09;91.27;99585.41;5057702;28;20028;-26
2023/12/13 00:42:55;;;;;;;40.78;21.02;;;;;;;3.11;92.46;99580.81;5057917;28;20039;-27
2023/12/13 00:45:21;;;;;;;46.05;21.42;;;;;;;3.42;91.81;99574.16;5057974;28;20016;-28
2023/12/13 00:47:47;;;;;;;43.83;21.58;;;;;;;3.53;90.63;99574.69;5058000;28;20409;-28
2023/12/13 00:50:12;;;;;;;42.65;21.67;;;;;;;3.40;90.98;99586.66;5057966;28;20021;-25
2023/12/13 00:52:38;;;;;;;42.38;20.05;;;;;;;3.15;91.73;99598.91;5057511;28;20540;-25
2023/12/13 00:55:04;;;;;;;39.75;19.42;;;;;;;2.93;92.32;99591.44;5057321;28;20393;-26
2023/12/13 00:57:32;;;;;;;37.72;19.50;;;;;;;3.00;93.44;99561.88;5057698;28;20381;-25
2023/12/13 00:59:58;;;;;;;46.80;21.50;;;;;;;3.16;92.62;99550.59;5057707;28;20021;-25
2023/12/13 01:02:24;;;;;;;39.08;19.95;;;;;;;3.16;92.16;99553.22;5057561;28;20033;-25
2023/12/13 01:04:50;;;;;;;39.67;19.75;;;;;;;3.11;92.21;99559.78;5057403;28;20021;-25
2023/12/13 01:07:15;;;;;;;39.95;18.88;;;;;;;3.08;92.27;99565.34;5057450;28;20047;-25
2023/12/13 01:09:40;;;;;;;45.72;19.23;;;;;;;3.02;91.80;99567.81;5057472;28;20029;-25
2023/12/13 01:12:06;;;;;;;35.85;18.50;;;;;;;3.17;91.95;99573.28;5057458;28;20029;-25
2023/12/13 01:14:35;;;;;;;37.35;17.83;;;;;;;3.01;92.46;99577.50;5057345;28;20440;-25
2023/12/13 01:17:00;;;;;;;35.80;17.05;;;;;;;2.81;92.57;99578.72;5057207;28;20056;-25
2023/12/13 01:19:26;;;;;;;34.55;17.45;;;;;;;2.91;92.55;99585.53;5057041;28;20052;-25
2023/12/13 01:21:51;;;;;;;32.33;16.20;;;;;;;2.91;92.64;99579.41;5057114;28;20107;-25
2023/12/13 01:24:17;;;;;;;33.67;17.38;;;;;;;2.83;93.23;99582.03;5057208;28;20028;-25
2023/12/13 01:26:42;;;;;;;36.58;17.17;;;;;;;2.88;92.85;99572.69;5057059;28;20026;-26
2023/12/13 01:29:07;;;;;;;31.98;16.98;;;;;;;2.97;92.29;99572.72;5056969;28;20024;-26
2023/12/13 01:31:34;;;;;;;33.85;16.65;;;;;;;2.88;92.23;99563.97;5057132;28;20064;-26
2023/12/13 01:34:00;;;;;;;39.28;17.73;;;;;;;3.05;92.67;99559.63;5057120;28;20057;-26
2023/12/13 01:36:25;;;;;;;31.52;16.63;;;;;;;2.92;92.67;99552.16;5056929;28;20472;-26
2023/12/13 01:38:51;;;;;;;29.77;15.52;;;;;;;2.79;92.32;99536.81;5056862;28;20035;-26
2023/12/13 01:41:16;;;;;;;31.10;16.08;;;;;;;3.07;92.46;99561.09;5055427;28;20524;-28
2023/12/13 01:43:41;;;;;;;38.95;17.08;;;;;;;2.91;93.63;99568.91;5053894;28;20386;-28
2023/12/13 01:46:07;;;;;;;39.85;17.70;;;;;;;2.78;94.76;99569.38;5053669;28;20025;-26
2023/12/13 01:48:33;;;;;;;28.50;16.00;;;;;;;3.06;92.91;99569.13;5054024;28;20021;-26
2023/12/13 01:50:59;;;;;;;28.85;15.15;;;;;;;3.13;91.91;99570.16;5053868;28;20380;-26
2023/12/13 01:53:26;;;;;;;32.60;16.90;;;;;;;3.17;91.41;99553.06;5053752;28;20029;-26
2023/12/13 01:55:54;;;;;;;31.92;16.20;;;;;;;2.96;92.45;99558.75;5053706;28;20028;-26
2023/12/13 01:58:20;;;;;;;32.17;15.98;;;;;;;2.95;92.85;99543.94;5053696;28;20083;-26
2023/12/13 02:00:46;;;;;;;30.05;16.15;;;;;;;2.91;92.71;99537.38;5053481;28;20040;-26
2023/12/13 02:03:12;;;;;;;30.35;14.63;;;;;;;3.02;93.15;99523.09;5053940;28;20033;-25
2023/12/13 02:05:39;;;;;;;32.13;15.43;;;;;;;2.83;92.93;99526.81;5053466;28;20112;-26
2023/12/13 02:08:05;;;;;;;30.90;14.90;;;;;;;2.89;92.91;99506.00;5053345;28;20118;-25
2023/12/13 02:10:30;;;;;;;30.90;15.30;;;;;;;2.88;93.31;99511.41;5053554;28;20057;-25
2023/12/13 02:12:56;;;;;;;33.65;15.20;;;;;;;3.12;91.27;99515.91;5053039;28;20037;-26
2023/12/13 02:15:22;;;;;;;32.38;15.90;;;;;;;3.16;90.00;99521.66;5053474;28;20025;-26
2023/12/13 02:17:53;;;;;;;29.58;15.82;;;;;;;2.89;90.88;99502.53;5053209;28;20029;-26
2023/12/13 02:20:19;;;;;;;27.17;14.52;;;;;;;2.88;90.51;99506.16;5053164;28;20390;-27
2023/12/13 02:22:45;;;;;;;33.50;15.98;;;;;;;2.80;91.69;99498.22;5053479;28;20035;-26
2023/12/13 02:25:16;;;;;;;27.27;14.73;;;;;;;2.68;91.79;99516.91;5053350;28;20111;-26
2023/12/13 02:27:42;;;;;;;32.05;15.63;;;;;;;2.85;91.08;99522.22;5053303;28;20025;-26
2023/12/13 02:30:09;;;;;;;37.42;16.73;;;;;;;2.98;91.15;99512.09;5052620;28;20036;-26
2023/12/13 02:32:34;;;;;;;28.77;14.88;;;;;;;2.79;92.01;99531.56;5052977;28;20049;-26
2023/12/13 02:35:00;;;;;;;31.40;15.30;;;;;;;2.84;92.07;99546.88;5053279;28;20483;-26
2023/12/13 02:37:25;;;;;;;35.17;15.93;;;;;;;2.85;92.36;99549.34;5053206;28;20032;-26
2023/12/13 02:39:51;;;;;;;33.75;16.52;;;;;;;2.70;92.74;99546.50;5053167;28;20455;-26
2023/12/13 02:42:17;;;;;;;32.88;15.57;;;;;;;2.84;93.22;99539.81;5053423;28;20053;-26
2023/12/13 02:44:43;;;;;;;29.27;14.32;;;;;;;2.77;92.71;99509.88;5053065;28;20024;-26
2023/12/13 02:47:09;;;;;;;32.60;15.18;;;;;;;2.62;93.69;99509.66;5052640;28;20021;-26
2023/12/13 02:49:35;;;;;;;27.70;14.70;;;;;;;2.76;92.72;99497.75;5052660;28;20512;-26
2023/12/13 02:52:01;;;;;;;31.60;15.35;;;;;;;2.89;93.08;99511.25;5053014;28;20031;-27
2023/12/13 02:54:26;;;;;;;24.92;13.52;;;;;;;2.94;91.98;99534.44;5051691;28;20025;-26
2023/12/13 02:56:52;;;;;;;31.00;14.85;;;;;;;2.99;91.55;99542.66;5052681;28;20393;-25
2023/12/13 02:59:17;;;;;;;32.42;15.23;;;;;;;2.96;91.35;99548.22;5052394;28;20104;-26
2023/12/13 03:01:42;;;;;;;32.60;15.38;;;;;;;3.12;91.29;99544.81;5052505;28;20075;-26
2023/12/13 03:04:08;;;;;;;30.92;15.52;;;;;;;3.22;91.14;99539.41;5052422;28;20067;-26
2023/12/13 03:06:33;;;;;;;30.05;14.65;;;;;;;2.84;92.01;99541.63;5051132;28;20036;-27
2023/12/13 03:08:58;;;;;;;30.27;14.85;;;;;;;2.90;92.36;99535.72;5052298;28;20428;-27
2023/12/13 03:11:24;;;;;;;25.73;13.30;;;;;;;2.99;92.27;99526.06;5052060;28;20068;-26
2023/12/13 03:13:50;;;;;;;33.80;15.93;;;;;;;3.03;91.36;99519.50;5051239;28;20025;-27
2023/12/13 03:16:15;;;;;;;31.25;15.00;;;;;;;2.96;91.78;99514.06;5051156;28;20085;-26
2023/12/13 03:18:40;;;;;;;32.03;15.38;;;;;;;2.85;91.51;99501.22;5051564;28;20437;-26
2023/12/13 03:21:06;;;;;;;36.17;17.80;;;;;;;3.10;91.47;99491.56;5051739;28;20027;-26
2023/12/13 03:23:31;;;;;;;32.10;16.15;;;;;;;2.83;91.49;99490.84;5051851;28;20160;-27
2023/12/13 03:25:57;;;;;;;37.42;16.27;;;;;;;2.65;91.61;99490.97;5051208;28;20028;-27
2023/12/13 03:28:22;;;;;;;39.22;18.42;;;;;;;2.48;92.67;99489.25;5051747;28;20025;-27
2023/12/13 03:30:48;;;;;;;36.45;17.73;;;;;;;2.65;93.42;99492.78;5052196;28;20037;-27
2023/12/13 03:33:13;;;;;;;38.20;17.95;;;;;;;2.73;93.87;99490.16;5051910;28;20132;-27
2023/12/13 03:35:39;;;;;;;34.40;17.65;;;;;;;2.64;93.82;99493.75;5052114;28;20452;-27
2023/12/13 03:38:04;;;;;;;37.53;17.02;;;;;;;2.71;93.31;99473.72;5052157;28;20029;-27
2023/12/13 03:40:30;;;;;;;38.45;16.52;;;;;;;2.69;93.41;99450.25;5051860;28;20132;-26
2023/12/13 03:42:55;;;;;;;33.10;15.77;;;;;;;2.73;93.43;99462.06;5051410;28;20025;-27
2023/12/13 03:45:23;;;;;;;33.70;16.05;;;;;;;2.85;92.83;99486.25;5051565;28;20481;-27
2023/12/13 03:47:48;;;;;;;35.40;16.90;;;;;;;2.75;92.86;99482.94;5051591;28;20025;-27
2023/12/13 03:50:14;;;;;;;31.67;16.85;;;;;;;2.77;93.36;99480.97;5051918;28;20044;-27
2023/12/13 03:52:40;;;;;;;33.30;16.50;;;;;;;2.99;92.18;99482.19;5051651;28;20025;-27
2023/12/13 03:55:07;;;;;;;29.83;15.52;;;;;;;2.79;92.23;99472.94;5051111;28;20397;-27
2023/12/13 03:57:32;;;;;;;38.05;16.15;;;;;;;2.74;93.17;99492.63;5051180;28;20024;-27
2023/12/13 03:59:57;;;;;;;33.22;15.38;;;;;;;2.56;93.65;99519.97;5050918;28;20021;-27
2023/12/13 04:02:23;;;;;;;36.28;15.93;;;;;;;2.69;93.71;99534.31;5050685;28;20028;-27
2023/12/13 04:04:49;;;;;;;32.30;16.15;;;;;;;2.63;94.57;99519.19;5050840;28;20114;-26
2023/12/13 04:07:15;;;;;;;31.60;15.80;;;;;;;2.65;95.10;99513.78;5051145;28;20060;-27
2023/12/13 04:09:40;;;;;;;32.35;15.38;;;;;;;3.06;92.97;99524.44;5051320;28;20048;-27
2023/12/13 04:12:06;;;;;;;26.88;14.35;;;;;;;3.08;91.87;99527.72;5051125;28;20024;-25
2023/12/13 04:14:31;;;;;;;35.88;14.80;;;;;;;3.09;91.78;99522.31;5051327;28;20025;-27
2023/12/13 04:16:57;;;;;;;33.60;15.88;;;;;;;2.96;92.61;99513.25;5049629;28;20410;-26
2023/12/13 04:19:22;;;;;;;29.52;15.57;;;;;;;3.15;90.92;99512.16;5050777;28;20021;-27
2023/12/13 04:21:47;;;;;;;30.55;15.02;;;;;;;2.88;92.52;99529.81;5051152;28;20094;-26
2023/12/13 04:24:13;;;;;;;32.13;15.15;;;;;;;2.78;92.66;99540.44;5051514;28;20029;-27
2023/12/13 04:26:39;;;;;;;27.27;13.98;;;;;;;2.85;92.67;99543.25;5049636;28;20020;-26
2023/12/13 04:29:04;;;;;;;27.00;13.85;;;;;;;2.87;93.01;99551.81;5051252;28;20021;-27
2023/12/13 04:31:30;;;;;;;23.90;13.82;;;;;;;2.94;92.47;99542.31;5051103;28;20111;-26
2023/12/13 04:33:55;;;;;;;27.92;13.23;;;;;;;3.09;91.69;99526.75;5050772;28;20049;-27
2023/12/13 04:36:21;;;;;;;27.33;13.00;;;;;;;3.15;90.89;99522.66;5051163;28;20021;-27
2023/12/13 04:38:46;;;;;;;24.88;12.63;;;;;;;3.07;90.18;99526.09;5051067;28;20021;-26
2023/12/13 04:41:12;;;;;;;22.25;11.98;;;;;;;3.00;91.03;99531.16;5051083;28;20024;-26
2023/12/13 04:43:37;;;;;;;25.90;12.93;;;;;;;2.92;90.91;99545.09;5051003;28;20020;-27
2023/12/13 04:46:02;;;;;;;25.15;12.75;;;;;;;2.82;91.11;99560.19;5050827;28;20025;-26
2023/12/13 04:48:28;;;;;;;23.27;12.45;;;;;;;2.85;90.33;99557.22;5050786;28;20040;-27
2023/12/13 04:50:53;;;;;;;26.45;13.13;;;;;;;3.08;90.11;99564.53;5050913;28;20055;-25
2023/12/13 04:53:19;;;;;;;23.65;11.90;;;;;;;2.87;90.30;99544.72;5050774;28;20020;-26
2023/12/13 04:55:44;;;;;;;27.27;12.55;;;;;;;2.92;90.23;99539.03;5051291;28;20480;-26
2023/12/13 04:58:10;;;;;;;23.90;11.73;;;;;;;2.81;90.44;99545.38;5050870;28;20166;-26
2023/12/13 05:00:35;;;;;;;24.45;12.20;;;;;;;2.96;90.43;99545.59;5050881;28;20051;-40
2023/12/13 05:03:01;;;;;;;24.60;11.60;;;;;;;3.14;89.57;99542.84;5051116;28;20091;-40
2023/12/13 05:05:26;;;;;;;23.52;11.25;;;;;;;2.90;90.05;99549.69;5050439;28;20036;-39
2023/12/13 05:07:51;;;;;;;25.10;11.27;;;;;;;2.97;90.27;99541.16;5050199;28;20078;-40
2023/12/13 05:10:17;;;;;;;21.42;12.27;;;;;;;2.90;90.93;99541.00;5050166;28;20017;-40
2023/12/13 05:12:42;;;;;;;23.42;11.63;;;;;;;2.91;90.92;99537.38;5050386;28;20100;-39
2023/12/13 05:15:08;;;;;;;20.77;11.30;;;;;;;2.84;91.28;99539.00;5050790;28;20444;-40
2023/12/13 05:17:33;;;;;;;22.98;11.63;;;;;;;3.01;90.50;99537.22;5052111;28;20021;-38
2023/12/13 05:19:59;;;;;;;18.55;10.63;;;;;;;2.76;90.55;99526.66;5053683;28;20411;-40
2023/12/13 05:22:24;;;;;;;22.25;11.38;;;;;;;3.05;91.36;99520.19;5054490;28;20077;-40
2023/12/13 05:24:49;;;;;;;21.42;11.82;;;;;;;3.08;90.60;99504.88;5054254;28;20115;-40
2023/12/13 05:27:15;;;;;;;31.95;15.20;;;;;;;3.32;90.09;99492.78;5054591;28;20033;-41
2023/12/13 05:29:43;;;;;;;31.00;15.63;;;;;;;3.39;89.22;99504.28;5054476;28;20029;-40
2023/12/13 05:32:09;;;;;;;27.30;13.63;;;;;;;3.15;89.50;99499.00;5054111;28;20518;-39
2023/12/13 05:34:34;;;;;;;26.20;12.75;;;;;;;3.06;89.73;99508.66;5054530;28;20037;-39
2023/12/13 05:37:05;;;;;;;24.98;13.13;;;;;;;3.46;92.37;99514.97;5054781;28;20052;-39
2023/12/13 05:39:30;;;;;;;27.67;13.45;;;;;;;3.36;89.40;99501.97;5054210;28;20044;-41
2023/12/13 05:41:56;;;;;;;28.90;14.57;;;;;;;3.59;92.94;99499.53;5053788;28;20025;-39
2023/12/13 05:44:22;;;;;;;39.25;17.23;;;;;;;3.35;90.22;99505.59;5054226;28;20020;-40
2023/12/13 05:46:47;;;;;;;28.17;14.65;;;;;;;5.81;89.90;99498.63;5053618;28;20031;-40
2023/12/13 05:49:13;;;;;;;29.63;13.18;;;;;;;4.70;82.08;99501.47;5053491;28;20037;-37
2023/12/13 05:51:39;;;;;;;27.50;13.40;;;;;;;4.80;89.93;99511.00;5054053;28;20036;-40
2023/12/13 05:54:04;;;;;;;31.08;15.55;;;;;;;4.31;83.17;99509.34;5054003;28;20037;-38
2023/12/13 05:56:30;;;;;;;26.77;14.27;;;;;;;3.53;85.67;99523.88;5054066;28;20037;-38
2023/12/13 05:58:55;;;;;;;32.45;14.80;;;;;;;3.09;86.87;99529.38;5053559;28;20033;-41
2023/12/13 06:01:22;;;;;;;30.80;14.57;;;;;;;2.83;88.52;99526.81;5054217;28;20025;-40
2023/12/13 06:03:47;;;;;;;28.67;15.30;;;;;;;2.74;89.18;99534.69;5053507;28;20357;-41
2023/12/13 06:06:13;;;;;;;31.67;16.00;;;;;;;2.58;91.15;99531.16;5052349;28;20044;-41
2023/12/13 06:08:40;;;;;;;29.20;14.88;;;;;;;2.51;91.42;99513.41;5053576;28;20029;-42
2023/12/13 06:11:07;;;;;;;31.50;15.57;;;;;;;2.73;91.89;99490.97;5053206;28;20036;-42
2023/12/13 06:13:32;;;;;;;38.60;15.77;;;;;;;2.70;90.56;99483.44;5053509;28;20033;-40
2023/12/13 06:15:57;;;;;;;30.95;16.08;;;;;;;2.94;90.20;99464.25;5053784;28;20037;-38
2023/12/13 06:18:23;;;;;;;34.35;16.20;;;;;;;3.11;89.42;99462.50;5052935;28;20032;-41
2023/12/13 06:20:48;;;;;;;34.30;16.50;;;;;;;3.00;93.27;99470.69;5051618;28;20473;-40
2023/12/13 06:23:14;;;;;;;44.53;20.25;;;;;;;4.85;100.00;99490.19;5052202;28;20029;-38
2023/12/13 06:25:39;;;;;;;32.95;18.33;;;;;;;6.22;100.00;99520.19;5053501;28;20052;-39
2023/12/13 06:28:04;;;;;;;37.42;16.73;;;;;;;6.22;85.25;99528.13;5053216;28;20175;-40
2023/12/13 06:30:30;;;;;;;30.17;15.48;;;;;;;5.57;82.54;99536.59;5053169;28;20021;-41
2023/12/13 06:32:55;;;;;;;39.42;17.00;;;;;;;4.98;83.42;99539.72;5053111;28;20124;-40
2023/12/13 06:35:21;;;;;;;32.30;15.55;;;;;;;4.92;81.66;99528.06;5053002;28;20071;-41
2023/12/13 06:37:46;;;;;;;32.83;16.60;;;;;;;5.09;82.36;99523.53;5053449;28;20017;-40
2023/12/13 06:40:14;;;;;;;31.88;15.30;;;;;;;5.14;81.94;99517.72;5053540;28;20033;-40
2023/12/13 06:42:40;;;;;;;31.25;15.85;;;;;;;4.45;84.91;99516.53;5052830;28;20035;-40
2023/12/13 06:45:06;;;;;;;32.83;18.27;;;;;;;4.46;84.98;99504.19;5052581;28;20033;-41
2023/12/13 06:47:31;;;;;;;33.90;15.95;;;;;;;4.61;83.35;99507.75;5050617;28;20493;-41
2023/12/13 06:49:57;;;;;;;34.13;15.35;;;;;;;4.46;83.99;99522.63;5050577;28;20025;-40
2023/12/13 06:52:22;;;;;;;39.17;18.10;;;;;;;4.92;83.68;99519.34;5050817;28;20511;-39
2023/12/13 06:54:47;;;;;;;36.05;18.33;;;;;;;4.86;82.95;99534.84;5050568;28;20466;-40
2023/12/13 06:57:13;;;;;;;36.63;19.15;;;;;;;4.66;84.54;99536.22;5050763;28;20029;-40
2023/12/13 06:59:39;;;;;;;39.25;19.67;;;;;;;4.44;85.27;99521.97;5051279;28;20074;-42
2023/12/13 07:02:05;;;;;;;40.00;20.10;;;;;;;4.30;86.49;99515.56;5051740;28;20036;-40
2023/12/13 07:04:31;;;;;;;39.90;19.98;;;;;;;4.38;86.44;99517.38;5051884;28;20025;-40
2023/12/13 07:06:58;;;;;;;38.22;21.50;;;;;;;4.42;87.18;99516.06;5052185;28;20027;-42
2023/12/13 07:09:24;;;;;;;37.78;18.52;;;;;;;4.78;84.93;99515.59;5051902;28;20028;-40
2023/12/13 07:11:49;;;;;;;41.28;18.77;;;;;;;5.33;83.29;99516.44;5051842;28;20397;-39
2023/12/13 07:14:15;;;;;;;34.35;16.15;;;;;;;4.64;83.20;99509.22;5051741;28;20106;-40
2023/12/13 07:16:41;;;;;;;34.63;16.77;;;;;;;4.62;84.22;99511.19;5051557;28;20413;-39
2023/12/13 07:19:07;;;;;;;31.17;16.08;;;;;;;4.52;84.10;99510.59;5051213;28;20406;-45
2023/12/13 07:21:32;;;;;;;34.30;17.35;;;;;;;4.54;84.35;99509.41;5051373;28;20024;-40
2023/12/13 07:23:58;;;;;;;30.30;15.65;;;;;;;4.57;85.34;99524.91;5051734;28;20025;-41
2023/12/13 07:26:23;;;;;;;32.50;16.08;;;;;;;4.35;86.61;99513.25;5051758;28;20024;-40
2023/12/13 07:28:49;;;;;;;36.45;17.05;;;;;;;4.14;89.15;99508.53;5051721;28;20025;-39
2023/12/13 07:31:14;;;;;;;35.10;17.00;;;;;;;4.04;88.30;99492.09;5051568;28;20055;-40
2023/12/13 07:33:40;;;;;;;35.22;17.83;;;;;;;4.90;87.55;99488.66;5051462;28;20133;-39
2023/12/13 07:36:06;;;;;;;35.25;16.73;;;;;;;5.15;85.22;99482.44;5051626;28;20383;-43
2023/12/13 07:38:32;;;;;;;33.38;16.67;;;;;;;4.93;86.88;99470.84;5051052;28;20023;-38
2023/12/13 07:40:57;;;;;;;30.73;16.88;;;;;;;5.35;84.88;99462.53;5050827;28;20096;-39
2023/12/13 07:43:23;;;;;;;33.15;17.27;;;;;;;5.82;81.54;99476.47;5051690;28;20124;-43
2023/12/13 07:45:51;;;;;;;35.05;17.08;;;;;;;6.18;80.39;99462.63;5051526;28;20173;-43
2023/12/13 07:48:20;;;;;;;36.95;17.13;;;;;;;5.85;81.73;99455.81;5051290;28;20528;-41
2023/12/13 07:50:46;;;;;;;33.88;16.50;;;;;;;6.32;82.19;99458.34;5051745;28;20032;-42
2023/12/13 07:53:12;;;;;;;28.35;16.27;;;;;;;6.20;81.10;99447.41;5051478;28;20037;-40
2023/12/13 07:55:38;;;;;;;36.15;16.95;;;;;;;6.22;80.51;99450.69;5051500;28;20108;-42
2023/12/13 07:58:03;;;;;;;31.33;15.98;;;;;;;6.63;80.76;99453.66;5051338;28;20113;-41
2023/12/13 08:00:29;;;;;;;28.85;16.88;;;;;;;6.50;80.22;99461.44;5051253;28;20051;-41
2023/12/13 08:02:54;;;;;;;40.40;17.42;;;;;;;6.56;80.17;99450.13;5051342;28;20025;-41
2023/12/13 08:05:20;;;;;;;33.20;16.27;;;;;;;7.45;79.06;99454.31;5051096;28;20021;-44
2023/12/13 08:07:46;;;;;;;36.47;17.92;;;;;;;7.47;78.37;99452.31;5051144;28;20033;-43
2023/12/13 08:10:11;;;;;;;39.05;17.52;;;;;;;7.45;78.61;99446.38;5051423;28;20021;-40
2023/12/13 08:12:37;;;;;;;32.25;17.38;;;;;;;7.58;77.87;99445.69;5051328;28;20405;-42
2023/12/13 08:15:05;;;;;;;39.47;18.50;;;;;;;7.77;77.84;99442.38;5051407;28;20021;-41
2023/12/13 08:17:31;;;;;;;31.52;17.80;;;;;;;7.69;76.45;99445.16;5050959;28;20025;-41
2023/12/13 08:19:56;;;;;;;39.88;18.90;;;;;;;7.71;75.90;99447.59;5050859;28;20036;-41
2023/12/13 08:22:21;;;;;;;36.22;17.98;;;;;;;7.79;75.71;99435.03;5051069;28;20119;-40
2023/12/13 08:24:47;;;;;;;37.47;19.85;;;;;;;7.89;75.40;99429.41;5051067;28;20021;-41
2023/12/13 08:27:12;;;;;;;39.00;19.98;;;;;;;7.80;76.06;99427.91;5049727;28;20496;-38
2023/12/13 08:29:38;;;;;;;34.38;18.70;;;;;;;7.61;77.29;99432.03;5050525;28;20104;-39
2023/12/13 08:32:03;;;;;;;31.48;16.75;;;;;;;7.70;77.88;99422.94;5050742;28;20501;-40
2023/12/13 08:34:29;;;;;;;35.10;16.73;;;;;;;7.75;78.06;99436.44;5051112;28;20029;-39
2023/12/13 08:36:54;;;;;;;36.53;17.45;;;;;;;7.73;78.55;99440.28;5051199;28;20021;-41
2023/12/13 08:39:21;;;;;;;33.97;17.55;;;;;;;7.67;77.96;99425.97;5050940;28;20439;-42
2023/12/13 08:41:47;;;;;;;30.88;16.10;;;;;;;7.74;78.06;99413.59;5050955;28;20036;-39
2023/12/13 08:44:12;;;;;;;34.60;17.05;;;;;;;7.93;77.96;99427.19;5050834;28;20013;-40
2023/12/13 08:46:38;;;;;;;34.88;17.65;;;;;;;8.18;76.82;99424.88;5050530;28;20055;-42
2023/12/13 08:49:04;;;;;;;32.25;16.63;;;;;;;8.08;77.22;99419.94;5050613;28;20017;-40
2023/12/13 08:51:29;;;;;;;30.70;16.70;;;;;;;7.88;78.03;99421.63;5053407;28;20049;-40
2023/12/13 08:53:55;;;;;;;33.47;15.68;;;;;;;7.88;77.79;99411.03;5054695;28;20033;-42
2023/12/13 08:56:21;;;;;;;26.30;15.13;;;;;;;7.55;79.36;99398.38;5054889;28;20114;-39
2023/12/13 08:58:46;;;;;;;34.22;15.57;;;;;;;7.75;78.11;99411.75;5055214;28;20017;-37
2023/12/13 09:01:12;;;;;;;30.50;15.52;;;;;;;7.86;77.51;99407.78;5054807;28;20456;-38
2023/12/13 09:03:38;;;;;;;23.60;13.40;;;;;;;7.84;76.44;99407.97;5055051;28;20025;-40
2023/12/13 09:06:05;;;;;;;26.33;13.93;;;;;;;7.50;77.76;99411.38;5054125;28;20032;-38
2023/12/13 09:08:30;;;;;;;28.95;14.60;;;;;;;7.72;77.37;99405.03;5054090;28;20032;-41
2023/12/13 09:10:56;;;;;;;27.38;13.63;;;;;;;7.63;77.31;99400.88;5054347;28;20029;-39
2023/12/13 09:13:21;;;;;;;27.05;14.43;;;;;;;7.64;77.35;99386.66;5054556;28;20025;-38
2023/12/13 09:15:46;;;;;;;26.10;13.40;;;;;;;7.56;77.15;99381.50;5054211;28;20017;-39
2023/12/13 09:18:12;;;;;;;26.92;14.98;;;;;;;7.42;79.03;99364.69;5054405;28;20025;-40
2023/12/13 09:20:37;;;;;;;29.35;14.70;;;;;;;7.39;79.34;99368.53;5054155;28;20405;-38
2023/12/13 09:23:04;;;;;;;25.00;14.13;;;;;;;7.31;79.86;99357.25;5054416;28;20115;-40
2023/12/13 09:25:30;;;;;;;24.95;14.02;;;;;;;7.54;80.22;99379.03;5054208;28;20029;-39
2023/12/13 09:27:55;;;;;;;24.85;14.18;;;;;;;7.52;78.67;99386.38;5054042;28;20468;-40
2023/12/13 09:30:20;;;;;;;26.65;14.30;;;;;;;7.33;78.52;99389.66;5054179;28;20115;-39
2023/12/13 09:32:46;;;;;;;27.58;14.60;;;;;;;7.31;80.24;99375.78;5053908;28;20094;-40
2023/12/13 09:35:11;;;;;;;26.30;13.73;;;;;;;8.17;75.73;99368.41;5053900;28;20029;-39
2023/12/13 09:37:37;;;;;;;23.90;14.15;;;;;;;8.00;76.08;99370.56;5053925;28;20100;-40
2023/12/13 09:40:02;;;;;;;26.60;15.15;;;;;;;7.73;77.39;99372.25;5053757;28;20060;-36
2023/12/13 09:42:29;;;;;;;29.95;15.50;;;;;;;7.95;77.11;99366.88;5053541;28;20025;-38
2023/12/13 09:44:55;;;;;;;29.15;15.15;;;;;;;8.01;77.49;99366.06;5053681;28;20182;-41
2023/12/13 09:47:23;;;;;;;28.45;15.18;;;;;;;8.24;76.83;99381.69;5053490;28;20021;-43
2023/12/13 09:49:49;;;;;;;29.60;14.90;;;;;;;8.52;75.27;99375.50;5053844;28;20523;-39
2023/12/13 09:52:18;;;;;;;25.15;14.88;;;;;;;8.10;75.83;99387.94;5053577;28;20021;-40
2023/12/13 09:54:45;;;;;;;29.17;15.48;;;;;;;8.16;76.08;99358.81;5053970;28;20037;-40
2023/12/13 09:57:10;;;;;;;33.83;16.45;;;;;;;8.46;75.00;99366.53;5053850;28;20017;-40
2023/12/13 09:59:38;;;;;;;33.53;16.05;;;;;;;8.03;76.88;99372.00;5053342;28;20104;-38
2023/12/13 10:02:09;;;;;;;31.30;16.90;;;;;;;8.13;76.75;99359.22;5052398;28;20018;-40
2023/12/13 10:04:35;;;;;;;32.15;16.60;;;;;;;8.17;76.22;99347.22;5053490;28;20072;-40
2023/12/13 10:07:00;;;;;;;31.02;16.58;;;;;;;8.17;75.70;99344.56;5053722;28;20025;-43
2023/12/13 10:09:27;;;;;;;30.08;16.45;;;;;;;8.17;75.83;99331.31;5053490;28;20017;-40
2023/12/13 10:11:54;;;;;;;30.73;17.08;;;;;;;8.36;74.94;99320.97;5053601;28;20475;-39
2023/12/13 10:14:19;;;;;;;29.50;15.57;;;;;;;8.43;75.01;99318.38;5053615;28;20025;-38
2023/12/13 10:16:44;;;;;;;29.58;15.75;;;;;;;8.88;74.08;99330.09;5053240;28;20116;-41
2023/12/13 10:19:10;;;;;;;30.65;16.27;;;;;;;9.43;71.32;99319.28;5053734;28;20013;-38
2023/12/13 10:21:36;;;;;;;26.70;15.48;;;;;;;9.65;69.98;99338.44;5053245;28;20029;-39
2023/12/13 10:24:03;;;;;;;27.55;14.48;;;;;;;10.03;68.53;99332.41;5053434;28;20077;-40
2023/12/13 10:26:33;;;;;;;27.73;15.32;;;;;;;10.21;67.14;99328.28;5053392;28;20028;-41
2023/12/13 10:29:00;;;;;;;26.08;15.27;;;;;;;9.61;69.60;99349.69;5053006;28;20113;-41
2023/12/13 10:31:25;;;;;;;25.42;15.07;;;;;;;10.14;67.65;99363.66;5052897;28;20104;-41
2023/12/13 10:33:51;;;;;;;27.35;16.77;;;;;;;10.44;66.97;99341.09;5052596;28;20573;-39
2023/12/13 10:36:18;;;;;;;32.03;17.60;;;;;;;10.75;66.23;99321.66;5052731;28;20186;-38
2023/12/13 10:38:47;;;;;;;30.63;18.50;;;;;;;10.96;65.23;99321.28;5053118;28;20016;-40
2023/12/13 10:41:14;;;;;;;27.73;16.80;;;;;;;11.31;64.69;99328.81;5053105;28;20021;-42
2023/12/13 10:43:41;;;;;;;28.15;15.93;;;;;;;11.00;64.39;99315.56;5052683;28;20021;-40
2023/12/13 10:46:09;;;;;;;28.98;16.52;;;;;;;11.03;64.36;99318.59;5052530;28;20123;-39
2023/12/13 10:48:39;;;;;;;30.27;18.17;;;;;;;11.24;64.14;99312.06;5052575;28;20445;-40
2023/12/13 10:51:06;;;;;;;30.42;17.60;;;;;;;11.58;63.22;99299.28;5052413;28;20544;-43
2023/12/13 10:53:33;;;;;;;32.92;17.88;;;;;;;11.90;62.44;99297.31;5052478;28;20048;-41
2023/12/13 10:56:02;;;;;;;32.15;17.52;;;;;;;11.76;62.96;99321.63;5052328;28;20035;-42
2023/12/13 10:58:28;;;;;;;28.55;16.90;;;;;;;11.91;61.60;99317.59;5052224;28;20125;-39
2023/12/13 11:00:55;;;;;;;28.13;16.23;;;;;;;12.07;60.34;99304.69;5052615;28;20552;-43
2023/12/13 11:03:35;;;;;;;28.50;16.20;;;;;;;12.20;59.53;99293.03;5052149;28;20496;-40
2023/12/13 11:06:04;;;;;;;;;;;;;;;12.28;58.92;99295.41;5051039;28;20376;-41
2023/12/13 11:08:38;;;;;;;28.52;15.48;;;;;;;12.16;59.36;99275.88;5052191;28;20365;-41
2023/12/13 11:11:04;;;;;;;28.05;15.68;;;;;;;12.06;60.21;99282.53;5052000;28;20032;-36
2023/12/13 11:13:31;;;;;;;27.13;16.00;;;;;;;12.12;60.34;99281.66;5051393;28;20017;-39
2023/12/13 11:15:57;;;;;;;27.80;15.70;;;;;;;12.16;60.89;99283.88;5051256;28;20085;-39
2023/12/13 11:18:25;;;;;;;27.58;15.45;;;;;;;12.25;60.42;99277.19;5052196;28;20485;-41